createdAt,value
2023-05-08T00:00:59.423Z,100742.27
2023-05-08T00:03:26.765Z,100743.13
2023-05-08T00:05:56.394Z,100746.70
2023-05-08T00:08:22.860Z,100747.19
2023-05-08T00:10:49.514Z,100757.14
2023-05-08T00:13:19.213Z,100759.73
2023-05-08T00:15:47.402Z,100763.44
2023-05-08T00:18:13.728Z,100768.64
2023-05-08T00:20:41.220Z,100767.88
2023-05-08T00:23:07.808Z,100777.07
2023-05-08T00:25:34.272Z,100779.96
2023-05-08T00:28:00.812Z,100783.17
2023-05-08T00:30:27.598Z,100789.67
2023-05-08T00:32:54.116Z,100784.79
2023-05-08T00:35:20.887Z,100788.64
2023-05-08T00:37:47.117Z,100791.70
2023-05-08T00:40:13.553Z,100790.73
2023-05-08T00:42:40.062Z,100788.11
2023-05-08T00:45:07.901Z,100785.71
2023-05-08T00:47:34.932Z,100783.60
2023-05-08T00:50:01.294Z,100780.48
2023-05-08T00:52:27.693Z,100779.66
2023-05-08T00:54:53.814Z,100782.96
2023-05-08T00:57:19.960Z,100786.46
2023-05-08T00:59:46.563Z,100791.42
2023-05-08T01:02:13.134Z,100793.53
2023-05-08T01:04:39.692Z,100796.73
2023-05-08T01:07:06.854Z,100799.83
2023-05-08T01:09:33.264Z,100800.23
2023-05-08T01:12:11.632Z,100799.83
2023-05-08T01:14:47.322Z,100797.19
2023-05-08T01:17:19.746Z,100799.59
2023-05-08T01:19:55.092Z,100794.71
2023-05-08T01:22:43.844Z,100792.59
2023-05-08T01:25:23.425Z,100796.73
2023-05-08T01:28:05.037Z,100801.08
2023-05-08T01:30:46.836Z,100807.96
2023-05-08T01:33:17.061Z,100805.56
2023-05-08T01:35:45.860Z,100806.62
2023-05-08T01:38:18.757Z,100806.30
2023-05-08T01:40:56.265Z,100806.01
2023-05-08T01:43:30.778Z,100809.99
2023-05-08T01:45:57.260Z,100809.01
2023-05-08T01:48:34.274Z,100806.63
2023-05-08T01:51:04.624Z,100811.20
2023-05-08T01:53:40.593Z,100815.11
2023-05-08T01:56:11.810Z,100818.86
2023-05-08T01:58:38.565Z,100816.13
2023-05-08T02:01:04.960Z,100818.27
2023-05-08T02:03:31.691Z,100823.13
2023-05-08T02:05:58.789Z,100824.57
2023-05-08T02:08:25.085Z,100826.13
2023-05-08T02:10:51.367Z,100824.82
2023-05-08T02:13:19.474Z,100825.05
2023-05-08T02:15:47.618Z,100820.08
2023-05-08T02:18:13.865Z,100822.95
2023-05-08T02:20:40.109Z,100824.02
2023-05-08T02:23:06.277Z,100826.58
2023-05-08T02:25:32.632Z,100824.48
2023-05-08T02:27:58.823Z,100831.13
2023-05-08T02:30:25.650Z,100833.42
2023-05-08T02:32:51.928Z,100832.84
2023-05-08T02:35:20.014Z,100841.68
2023-05-08T02:37:50.590Z,100844.98
2023-05-08T02:40:16.925Z,100836.68
2023-05-08T02:42:43.808Z,100838.79
2023-05-08T02:45:11.754Z,100839.80
2023-05-08T02:48:01.378Z,100836.98
2023-05-08T02:50:35.029Z,100833.34
2023-05-08T02:53:07.648Z,100829.53
2023-05-08T02:55:42.392Z,100829.17
2023-05-08T02:58:24.774Z,100825.61
2023-05-08T03:01:00.313Z,100829.33
2023-05-08T03:03:32.514Z,100833.98
2023-05-08T03:05:59.169Z,100834.20
2023-05-08T03:08:29.280Z,100833.45
2023-05-08T03:10:57.527Z,100835.67
2023-05-08T03:13:24.098Z,100840.38
2023-05-08T03:15:59.518Z,100834.83
2023-05-08T03:18:30.779Z,100830.72
2023-05-08T03:20:57.530Z,100825.96
2023-05-08T03:23:24.356Z,100835.02
2023-05-08T03:25:50.644Z,100836.71
2023-05-08T03:28:17.102Z,100833.68
2023-05-08T03:30:43.569Z,100840.61
2023-05-08T03:33:12.660Z,100837.20
2023-05-08T03:35:38.979Z,100835.95
2023-05-08T03:38:07.338Z,100836.04
2023-05-08T03:40:43.600Z,100837.96
2023-05-08T03:45:26.665Z,100837.22
2023-05-08T03:47:54.050Z,100837.88
2023-05-08T03:50:21.888Z,100837.22
2023-05-08T03:52:49.344Z,100840.91
2023-05-08T03:55:16.610Z,100836.04
2023-05-08T03:57:49.332Z,100834.73
2023-05-08T04:00:26.988Z,100833.96
2023-05-08T04:03:03.464Z,100827.83
2023-05-08T04:05:37.862Z,100822.14
2023-05-08T04:08:35.036Z,100824.09
2023-05-08T04:11:27.255Z,100821.99
2023-05-08T04:13:58.729Z,100820.60
2023-05-08T04:16:27.937Z,100821.45
2023-05-08T04:19:03.865Z,100822.20
2023-05-08T04:21:32.914Z,100815.76
2023-05-08T04:24:00.309Z,100816.05
2023-05-08T04:26:27.778Z,100810.20
2023-05-08T04:28:55.973Z,100809.77
2023-05-08T04:31:23.053Z,100811.33
2023-05-08T04:33:50.119Z,100815.65
2023-05-08T04:36:17.209Z,100812.56
2023-05-08T04:38:44.986Z,100813.02
2023-05-08T04:41:12.743Z,100807.48
2023-05-08T04:43:40.220Z,100816.33
2023-05-08T04:46:08.673Z,100821.31
2023-05-08T04:48:35.936Z,100824.98
2023-05-08T04:51:03.042Z,100823.36
2023-05-08T04:53:55.638Z,100824.58
2023-05-08T04:56:22.660Z,100827.48
2023-05-08T04:58:51.197Z,100828.95
2023-05-08T05:01:19.688Z,100828.42
2023-05-08T05:03:47.100Z,100823.92
2023-05-08T05:06:14.330Z,100821.28
2023-05-08T05:08:41.363Z,100831.58
2023-05-08T05:11:08.596Z,100826.48
2023-05-08T05:13:36.478Z,100824.76
2023-05-08T05:16:03.868Z,100825.11
2023-05-08T05:18:31.400Z,100828.45
2023-05-08T05:20:59.501Z,100829.09
2023-05-08T05:30:01.775Z,100837.62
2023-05-08T05:32:31.028Z,100839.21
2023-05-08T05:34:58.649Z,100837.30
2023-05-08T05:37:26.293Z,100841.04
2023-05-08T05:39:53.830Z,100845.21
2023-05-08T05:42:21.973Z,100838.75
2023-05-08T05:44:49.383Z,100833.98
2023-05-08T05:47:17.297Z,100837.89
2023-05-08T05:49:47.025Z,100837.41
2023-05-08T05:52:14.563Z,100834.88
2023-05-08T05:54:44.164Z,100829.32
2023-05-08T05:57:13.281Z,100825.44
2023-05-08T05:59:41.457Z,100827.56
2023-05-08T06:02:10.620Z,100832.95
2023-05-08T06:04:38.367Z,100828.65
2023-05-08T06:07:07.205Z,100825.36
2023-05-08T06:09:34.282Z,100836.07
2023-05-08T06:12:01.346Z,100832.32
2023-05-08T06:14:28.326Z,100826.20
2023-05-08T06:16:55.203Z,100824.13
2023-05-08T06:19:24.253Z,100832.89
2023-05-08T06:21:52.144Z,100834.56
2023-05-08T06:24:19.303Z,100831.95
2023-05-08T06:26:46.995Z,100828.56
2023-05-08T06:29:14.026Z,100836.84
2023-05-08T06:31:41.252Z,100831.64
2023-05-08T06:34:09.088Z,100830.58
2023-05-08T06:36:36.765Z,100822.34
2023-05-08T06:39:06.869Z,100835.33
2023-05-08T06:41:33.786Z,100835.77
2023-05-08T06:44:00.854Z,100840.23
2023-05-08T06:46:27.902Z,100844.81
2023-05-08T06:48:54.820Z,100844.28
2023-05-08T06:51:23.365Z,100848.30
2023-05-08T06:53:50.526Z,100853.10
2023-05-08T06:56:17.460Z,100848.38
2023-05-08T06:58:48.441Z,100838.98
2023-05-08T07:01:24.192Z,100850.20
2023-05-08T07:03:51.370Z,100847.55
2023-05-08T07:06:18.538Z,100843.41
2023-05-08T07:08:45.511Z,100853.33
2023-05-08T07:11:12.604Z,100850.46
2023-05-08T07:13:39.627Z,100845.85
2023-05-08T07:16:11.038Z,100850.77
2023-05-08T07:18:38.198Z,100838.73
2023-05-08T07:21:05.316Z,100838.73
2023-05-08T07:23:32.327Z,100847.57
2023-05-08T07:25:59.581Z,100847.73
2023-05-08T07:28:26.937Z,100853.64
2023-05-08T07:30:53.882Z,100848.23
2023-05-08T07:33:21.033Z,100845.30
2023-05-08T07:35:47.945Z,100843.30
2023-05-08T07:38:15.198Z,100852.85
2023-05-08T07:40:42.348Z,100846.77
2023-05-08T07:43:09.706Z,100847.50
2023-05-08T07:45:36.785Z,100840.27
2023-05-08T07:48:03.961Z,100841.48
2023-05-08T07:50:31.503Z,100835.79
2023-05-08T07:52:58.414Z,100836.36
2023-05-08T07:55:25.300Z,100839.66
2023-05-08T07:57:52.608Z,100840.47
2023-05-08T08:00:19.584Z,100831.14
2023-05-08T08:02:46.732Z,100833.20
2023-05-08T08:05:13.923Z,100832.48
2023-05-08T08:07:41.363Z,100841.98
2023-05-08T08:10:08.678Z,100831.75
2023-05-08T08:12:36.053Z,100838.59
2023-05-08T08:15:03.375Z,100824.92
2023-05-08T08:17:31.026Z,100832.58
2023-05-08T08:19:57.965Z,100836.89
2023-05-08T08:22:25.690Z,100835.43
2023-05-08T08:24:55.069Z,100835.20
2023-05-08T08:27:22.908Z,100829.86
2023-05-08T08:29:51.189Z,100814.19
2023-05-08T08:32:19.856Z,100832.79
2023-05-08T08:34:46.834Z,100831.01
2023-05-08T08:37:13.703Z,100824.67
2023-05-08T08:39:40.726Z,100831.56
2023-05-08T08:42:07.644Z,100829.82
2023-05-08T08:44:35.505Z,100832.61
2023-05-08T08:47:02.965Z,100831.33
2023-05-08T08:49:35.322Z,100839.91
2023-05-08T08:52:39.317Z,100826.95
2023-05-08T08:55:08.221Z,100832.59
2023-05-08T08:57:37.096Z,100830.33
2023-05-08T09:00:05.470Z,100824.30
2023-05-08T09:02:33.191Z,100830.31
2023-05-08T09:05:00.255Z,100827.44
2023-05-08T09:07:27.706Z,100825.55
2023-05-08T09:09:54.568Z,100830.91
2023-05-08T09:12:21.544Z,100820.14
2023-05-08T09:14:48.509Z,100825.68
2023-05-08T09:17:15.503Z,100830.20
2023-05-08T09:19:42.756Z,100827.20
2023-05-08T09:22:10.773Z,100828.10
2023-05-08T09:24:57.455Z,100824.94
2023-05-08T09:27:25.703Z,100822.20
2023-05-08T09:30:09.016Z,100823.32
2023-05-08T09:32:39.813Z,100821.18
2023-05-08T09:35:07.538Z,100825.72
2023-05-08T09:37:37.216Z,100824.98
2023-05-08T09:40:17.009Z,100826.67
2023-05-08T09:42:44.177Z,100824.91
2023-05-08T09:45:11.766Z,100818.53
2023-05-08T09:47:40.333Z,100817.70
2023-05-08T09:50:08.803Z,100816.02
2023-05-08T09:52:37.594Z,100816.99
2023-05-08T09:55:08.770Z,100828.81
2023-05-08T09:57:41.081Z,100817.95
2023-05-08T10:00:13.267Z,100821.30
2023-05-08T10:02:41.609Z,100813.77
2023-05-08T10:05:32.615Z,100816.53
2023-05-08T10:08:17.616Z,100817.52
2023-05-08T10:10:44.777Z,100815.65
2023-05-08T10:13:11.876Z,100811.46
2023-05-08T10:15:39.130Z,100809.17
2023-05-08T10:18:07.253Z,100814.58
2023-05-08T10:20:36.086Z,100806.67
2023-05-08T10:23:03.705Z,100800.09
2023-05-08T10:25:33.015Z,100805.05
2023-05-08T10:28:02.648Z,100792.11
2023-05-08T10:30:29.888Z,100794.90
2023-05-08T10:32:58.571Z,100790.57
2023-05-08T10:35:25.557Z,100793.92
2023-05-08T10:37:52.475Z,100792.10
2023-05-08T10:40:21.057Z,100799.30
2023-05-08T10:42:48.370Z,100787.89
2023-05-08T10:45:15.278Z,100787.42
2023-05-08T10:47:48.096Z,100786.66
2023-05-08T10:50:42.693Z,100780.85
2023-05-08T10:53:47.904Z,100787.91
2023-05-08T10:56:14.757Z,100782.14
2023-05-08T10:58:41.724Z,100785.52
2023-05-08T11:01:09.039Z,100778.96
2023-05-08T11:03:41.568Z,100780.30
2023-05-08T11:06:08.613Z,100787.45
2023-05-08T11:08:54.632Z,100792.52
2023-05-08T11:11:33.456Z,100788.27
2023-05-08T11:14:11.691Z,100783.23
2023-05-08T11:16:54.001Z,100783.54
2023-05-08T11:19:22.169Z,100775.55
2023-05-08T11:22:13.855Z,100781.52
2023-05-08T11:25:03.843Z,100782.25
2023-05-08T11:27:49.940Z,100770.44
2023-05-08T11:30:36.217Z,100776.55
2023-05-08T11:33:03.209Z,100777.30
2023-05-08T11:35:41.487Z,100771.31
2023-05-08T11:38:14.315Z,100766.23
2023-05-08T11:41:10.434Z,100778.27
2023-05-08T11:43:37.717Z,100762.40
2023-05-08T11:46:06.416Z,100760.45
2023-05-08T11:48:33.901Z,100770.67
2023-05-08T11:51:01.129Z,100770.64
2023-05-08T11:53:28.950Z,100771.47
2023-05-08T11:55:55.989Z,100761.16
2023-05-08T11:58:23.227Z,100751.44
2023-05-08T12:00:50.164Z,100751.27
2023-05-08T12:03:19.017Z,100759.66
2023-05-08T12:05:46.456Z,100759.61
2023-05-08T12:08:13.794Z,100745.80
2023-05-08T12:10:47.045Z,100746.57
2023-05-08T12:13:23.862Z,100755.83
2023-05-08T12:15:53.400Z,100751.36
2023-05-08T12:18:21.207Z,100750.79
2023-05-08T12:20:58.312Z,100749.55
2023-05-08T12:23:25.996Z,100737.09
2023-05-08T12:25:55.782Z,100740.50
2023-05-08T12:28:22.994Z,100747.17
2023-05-08T12:30:50.267Z,100746.52
2023-05-08T12:33:17.842Z,100755.29
2023-05-08T12:35:44.751Z,100737.80
2023-05-08T12:38:14.356Z,100736.64
2023-05-08T12:40:45.572Z,100740.39
2023-05-08T12:43:12.536Z,100729.04
2023-05-08T12:45:40.627Z,100739.32
2023-05-08T12:48:12.204Z,100736.92
2023-05-08T12:50:40.225Z,100730.59
2023-05-08T12:53:11.103Z,100725.89
2023-05-08T12:55:39.058Z,100731.33
2023-05-08T12:58:06.699Z,100727.47
2023-05-08T13:00:43.728Z,100738.05
2023-05-08T13:03:11.893Z,100728.66
2023-05-08T13:05:45.846Z,100738.48
2023-05-08T13:08:12.762Z,100739.14
2023-05-08T13:10:49.822Z,100738.27
2023-05-08T13:13:21.542Z,100734.69
2023-05-08T13:15:48.902Z,100741.73
2023-05-08T13:18:16.061Z,100736.81
2023-05-08T13:20:43.498Z,100730.88
2023-05-08T13:23:10.514Z,100728.85
2023-05-08T13:25:38.309Z,100739.95
2023-05-08T13:28:05.951Z,100741.20
2023-05-08T13:30:33.810Z,100741.88
2023-05-08T13:33:01.326Z,100743.80
2023-05-08T13:35:31.115Z,100744.60
2023-05-08T13:37:58.316Z,100743.61
2023-05-08T13:40:25.547Z,100746.63
2023-05-08T13:42:52.587Z,100746.91
2023-05-08T13:45:19.712Z,100745.94
2023-05-08T13:47:47.759Z,100739.55
2023-05-08T13:50:15.933Z,100742.54
2023-05-08T13:52:43.257Z,100743.07
2023-05-08T13:55:11.575Z,100738.96
2023-05-08T13:57:39.080Z,100743.02
2023-05-08T14:00:06.815Z,100739.17
2023-05-08T14:02:38.040Z,100744.02
2023-05-08T14:05:07.334Z,100745.66
2023-05-08T14:07:34.578Z,100743.02
2023-05-08T14:10:01.556Z,100738.50
2023-05-08T14:12:28.486Z,100747.90
2023-05-08T14:14:55.502Z,100753.23
2023-05-08T14:17:22.502Z,100748.33
2023-05-08T14:19:49.513Z,100749.79
2023-05-08T14:22:16.563Z,100750.21
2023-05-08T14:24:44.371Z,100747.11
2023-05-08T14:27:11.376Z,100745.94
2023-05-08T14:29:38.450Z,100748.00
2023-05-08T14:32:05.734Z,100747.65
2023-05-08T14:34:32.984Z,100750.52
2023-05-08T14:36:59.945Z,100751.18
2023-05-08T14:39:26.987Z,100746.59
2023-05-08T14:44:23.748Z,100745.98
2023-05-08T14:46:50.946Z,100743.66
2023-05-08T14:49:25.410Z,100748.98
2023-05-08T14:52:00.262Z,100749.45
2023-05-08T14:54:27.295Z,100745.98
2023-05-08T14:56:54.329Z,100745.44
2023-05-08T14:59:21.248Z,100748.07
2023-05-08T15:01:48.160Z,100749.20
2023-05-08T15:04:15.261Z,100749.23
2023-05-08T15:06:42.151Z,100750.14
2023-05-08T15:09:09.779Z,100749.17
2023-05-08T15:11:37.239Z,100747.35
2023-05-08T15:14:04.805Z,100753.99
2023-05-08T15:16:32.476Z,100747.17
2023-05-08T15:18:59.704Z,100756.65
2023-05-08T15:21:27.451Z,100749.36
2023-05-08T15:23:55.081Z,100749.23
2023-05-08T15:26:22.728Z,100754.27
2023-05-08T15:28:49.661Z,100758.57
2023-05-08T15:31:17.382Z,100754.84
2023-05-08T15:33:45.283Z,100758.63
2023-05-08T15:36:13.513Z,100761.30
2023-05-08T15:38:43.345Z,100764.83
2023-05-08T15:41:14.579Z,100759.50
2023-05-08T15:43:43.096Z,100758.67
2023-05-08T15:46:10.385Z,100763.89
2023-05-08T15:48:37.407Z,100758.58
2023-05-08T15:51:04.416Z,100764.63
2023-05-08T15:53:32.572Z,100767.29
2023-05-08T15:55:59.490Z,100763.46
2023-05-08T15:58:27.731Z,100767.05
2023-05-08T16:16:06.736Z,100768.95
2023-05-08T16:18:34.820Z,100772.15
2023-05-08T16:21:01.662Z,100770.90
2023-05-08T16:23:28.196Z,100768.38
2023-05-08T16:25:54.553Z,100776.05
2023-05-08T16:28:21.275Z,100773.21
2023-05-08T16:30:47.659Z,100775.14
2023-05-08T16:40:51.011Z,100771.11
2023-05-08T16:50:18.102Z,100784.44
2023-05-08T16:52:45.365Z,100785.57
2023-05-08T16:55:12.983Z,100791.02
2023-05-08T16:57:41.131Z,100790.11
